PPR Request

Prior permission is required for take-offs and landings. Make a prior permission request here.

Traffic Circuit Slot

Make your PPR request first, then the TC slot reservation. Price 5 € / 15 minute slot.

Aerodrome Info

Updated 16 AUG 2018 21:33 LT

Contact duty officer at +358 20 7545 129 for more information.

Weather


Helsinki Malmi lentokenttä
AWS ILHF 170400Z AUTO 15004KT CAVOK 15/15 Q1019=



Helsinki-Malmin lentoasema

Welcome to Helsinki-Malmi Airport

Helsinki-Malmi is the busiest general aviation airport in Finland, operated by Malmi Airfield Association.

Behind the association are organizations, companies and persons operating at the Malmi Airport.

The Association’s work is funded by membership fees and season card fees. The Association needs both full members and supporting members to finance its activity.

Be involved in continuing Malmi’s aviation activities and join as a member!